sensor_id;sensor_type;location;lat;lon;timestamp;P1;durP1;ratioP1;P2;durP2;ratioP2
1308;SDS011;647;48.840;9.314;2022-12-24T00:00:56;65.90;;;6.53;;
1308;SDS011;647;48.840;9.314;2022-12-24T00:03:23;66.70;;;6.90;;
1308;SDS011;647;48.840;9.314;2022-12-24T00:05:51;61.93;;;5.00;;
1308;SDS011;647;48.840;9.314;2022-12-24T00:08:18;64.23;;;6.00;;
1308;SDS011;647;48.840;9.314;2022-12-24T00:10:49;68.90;;;6.70;;
1308;SDS011;647;48.840;9.314;2022-12-24T00:13:16;63.13;;;5.20;;
1308;SDS011;647;48.840;9.314;2022-12-24T00:15:43;68.73;;;7.60;;
1308;SDS011;647;48.840;9.314;2022-12-24T00:18:10;63.53;;;5.67;;
1308;SDS011;647;48.840;9.314;2022-12-24T00:20:38;60.50;;;4.30;;
1308;SDS011;647;48.840;9.314;2022-12-24T00:23:05;63.27;;;3.90;;
1308;SDS011;647;48.840;9.314;2022-12-24T00:25:32;60.83;;;3.63;;
1308;SDS011;647;48.840;9.314;2022-12-24T00:28:00;58.80;;;3.07;;
1308;SDS011;647;48.840;9.314;2022-12-24T00:30:27;64.53;;;3.47;;
1308;SDS011;647;48.840;9.314;2022-12-24T00:32:55;63.23;;;3.67;;
1308;SDS011;647;48.840;9.314;2022-12-24T00:35:22;61.80;;;3.90;;
1308;SDS011;647;48.840;9.314;2022-12-24T00:37:49;61.40;;;3.37;;
1308;SDS011;647;48.840;9.314;2022-12-24T00:40:17;66.97;;;5.77;;
1308;SDS011;647;48.840;9.314;2022-12-24T00:42:44;59.20;;;3.90;;
1308;SDS011;647;48.840;9.314;2022-12-24T00:45:12;60.10;;;3.60;;
1308;SDS011;647;48.840;9.314;2022-12-24T00:47:40;61.80;;;3.93;;
1308;SDS011;647;48.840;9.314;2022-12-24T00:50:07;63.40;;;3.97;;
1308;SDS011;647;48.840;9.314;2022-12-24T00:52:34;60.10;;;3.40;;
1308;SDS011;647;48.840;9.314;2022-12-24T00:55:02;60.97;;;3.23;;
1308;SDS011;647;48.840;9.314;2022-12-24T00:57:29;60.23;;;3.47;;
1308;SDS011;647;48.840;9.314;2022-12-24T00:59:56;61.60;;;3.33;;
1308;SDS011;647;48.840;9.314;2022-12-24T01:02:25;60.50;;;3.57;;
1308;SDS011;647;48.840;9.314;2022-12-24T01:04:52;60.77;;;3.60;;
1308;SDS011;647;48.840;9.314;2022-12-24T01:07:38;67.10;;;7.47;;
1308;SDS011;647;48.840;9.314;2022-12-24T01:10:06;71.87;;;8.30;;
1308;SDS011;647;48.840;9.314;2022-12-24T01:12:33;63.83;;;5.67;;
1308;SDS011;647;48.840;9.314;2022-12-24T01:15:00;62.20;;;4.20;;
1308;SDS011;647;48.840;9.314;2022-12-24T01:17:29;64.70;;;5.10;;
1308;SDS011;647;48.840;9.314;2022-12-24T01:19:56;61.37;;;3.70;;
1308;SDS011;647;48.840;9.314;2022-12-24T01:22:24;59.47;;;3.20;;
1308;SDS011;647;48.840;9.314;2022-12-24T01:24:51;62.00;;;4.33;;
1308;SDS011;647;48.840;9.314;2022-12-24T01:27:18;63.13;;;4.00;;
1308;SDS011;647;48.840;9.314;2022-12-24T01:29:45;65.00;;;3.70;;
1308;SDS011;647;48.840;9.314;2022-12-24T01:32:12;61.93;;;4.17;;
1308;SDS011;647;48.840;9.314;2022-12-24T01:34:40;63.40;;;4.20;;
1308;SDS011;647;48.840;9.314;2022-12-24T01:37:08;65.00;;;4.10;;
1308;SDS011;647;48.840;9.314;2022-12-24T01:39:35;65.87;;;4.10;;
1308;SDS011;647;48.840;9.314;2022-12-24T01:42:08;64.20;;;4.60;;
1308;SDS011;647;48.840;9.314;2022-12-24T01:44:55;62.27;;;3.40;;
1308;SDS011;647;48.840;9.314;2022-12-24T01:47:23;62.90;;;4.30;;
1308;SDS011;647;48.840;9.314;2022-12-24T01:49:54;61.67;;;4.17;;
1308;SDS011;647;48.840;9.314;2022-12-24T01:52:23;67.03;;;5.40;;
1308;SDS011;647;48.840;9.314;2022-12-24T01:54:52;68.50;;;4.40;;
1308;SDS011;647;48.840;9.314;2022-12-24T01:57:21;65.67;;;4.10;;
1308;SDS011;647;48.840;9.314;2022-12-24T01:59:50;66.10;;;5.03;;
1308;SDS011;647;48.840;9.314;2022-12-24T02:02:19;68.70;;;4.20;;
1308;SDS011;647;48.840;9.314;2022-12-24T02:04:49;62.53;;;4.30;;
1308;SDS011;647;48.840;9.314;2022-12-24T02:07:18;68.50;;;3.77;;
1308;SDS011;647;48.840;9.314;2022-12-24T02:09:45;62.23;;;4.20;;
1308;SDS011;647;48.840;9.314;2022-12-24T02:12:13;63.70;;;4.10;;
1308;SDS011;647;48.840;9.314;2022-12-24T02:14:40;65.70;;;4.30;;
1308;SDS011;647;48.840;9.314;2022-12-24T02:17:09;63.30;;;4.23;;
1308;SDS011;647;48.840;9.314;2022-12-24T02:22:28;65.53;;;4.07;;
1308;SDS011;647;48.840;9.314;2022-12-24T02:25:08;65.53;;;4.40;;
1308;SDS011;647;48.840;9.314;2022-12-24T02:27:45;67.97;;;4.77;;
1308;SDS011;647;48.840;9.314;2022-12-24T02:30:21;67.23;;;4.70;;
1308;SDS011;647;48.840;9.314;2022-12-24T02:32:57;64.70;;;4.83;;
1308;SDS011;647;48.840;9.314;2022-12-24T02:35:28;64.87;;;3.80;;
1308;SDS011;647;48.840;9.314;2022-12-24T02:37:57;63.23;;;4.67;;
1308;SDS011;647;48.840;9.314;2022-12-24T02:40:26;65.07;;;4.40;;
1308;SDS011;647;48.840;9.314;2022-12-24T02:42:54;65.07;;;4.33;;
1308;SDS011;647;48.840;9.314;2022-12-24T02:45:25;63.80;;;4.83;;
1308;SDS011;647;48.840;9.314;2022-12-24T02:47:53;63.40;;;4.60;;
1308;SDS011;647;48.840;9.314;2022-12-24T02:50:21;64.63;;;5.17;;
1308;SDS011;647;48.840;9.314;2022-12-24T02:52:49;62.90;;;4.33;;
1308;SDS011;647;48.840;9.314;2022-12-24T02:55:17;63.97;;;4.07;;
1308;SDS011;647;48.840;9.314;2022-12-24T03:00:33;67.07;;;5.27;;
1308;SDS011;647;48.840;9.314;2022-12-24T03:03:06;61.97;;;4.37;;
1308;SDS011;647;48.840;9.314;2022-12-24T03:05:40;59.37;;;4.13;;
1308;SDS011;647;48.840;9.314;2022-12-24T03:08:11;60.60;;;4.23;;
1308;SDS011;647;48.840;9.314;2022-12-24T03:10:41;64.63;;;4.77;;
1308;SDS011;647;48.840;9.314;2022-12-24T03:13:11;68.17;;;4.53;;
1308;SDS011;647;48.840;9.314;2022-12-24T03:15:41;62.00;;;4.40;;
1308;SDS011;647;48.840;9.314;2022-12-24T03:18:09;64.23;;;5.20;;
1308;SDS011;647;48.840;9.314;2022-12-24T03:20:37;65.53;;;4.47;;
1308;SDS011;647;48.840;9.314;2022-12-24T03:23:04;61.90;;;4.03;;
1308;SDS011;647;48.840;9.314;2022-12-24T03:25:32;64.57;;;4.63;;
1308;SDS011;647;48.840;9.314;2022-12-24T03:28:00;68.27;;;4.80;;
1308;SDS011;647;48.840;9.314;2022-12-24T03:30:28;63.20;;;4.30;;
1308;SDS011;647;48.840;9.314;2022-12-24T03:32:57;70.47;;;5.73;;
1308;SDS011;647;48.840;9.314;2022-12-24T03:35:24;61.10;;;4.27;;
1308;SDS011;647;48.840;9.314;2022-12-24T03:37:51;68.67;;;5.27;;
1308;SDS011;647;48.840;9.314;2022-12-24T03:40:18;65.47;;;4.70;;
1308;SDS011;647;48.840;9.314;2022-12-24T03:42:45;62.87;;;5.60;;
1308;SDS011;647;48.840;9.314;2022-12-24T03:45:12;67.13;;;5.10;;
1308;SDS011;647;48.840;9.314;2022-12-24T03:47:40;63.33;;;4.83;;
1308;SDS011;647;48.840;9.314;2022-12-24T03:50:08;62.97;;;5.70;;
1308;SDS011;647;48.840;9.314;2022-12-24T03:52:35;63.10;;;6.07;;
1308;SDS011;647;48.840;9.314;2022-12-24T03:55:03;62.37;;;5.10;;
1308;SDS011;647;48.840;9.314;2022-12-24T03:57:30;71.17;;;5.83;;
1308;SDS011;647;48.840;9.314;2022-12-24T03:59:57;67.97;;;5.83;;
1308;SDS011;647;48.840;9.314;2022-12-24T04:02:24;65.30;;;5.90;;
1308;SDS011;647;48.840;9.314;2022-12-24T04:04:51;62.30;;;4.50;;
1308;SDS011;647;48.840;9.314;2022-12-24T04:07:20;65.83;;;5.47;;
1308;SDS011;647;48.840;9.314;2022-12-24T04:09:47;61.40;;;4.30;;
1308;SDS011;647;48.840;9.314;2022-12-24T04:12:14;67.27;;;5.60;;
1308;SDS011;647;48.840;9.314;2022-12-24T04:14:41;63.40;;;5.10;;
1308;SDS011;647;48.840;9.314;2022-12-24T04:17:08;64.00;;;4.30;;
1308;SDS011;647;48.840;9.314;2022-12-24T04:19:35;62.97;;;4.53;;
1308;SDS011;647;48.840;9.314;2022-12-24T04:22:02;61.37;;;5.00;;
1308;SDS011;647;48.840;9.314;2022-12-24T04:24:31;62.03;;;4.53;;
1308;SDS011;647;48.840;9.314;2022-12-24T04:26:58;67.77;;;4.50;;
1308;SDS011;647;48.840;9.314;2022-12-24T04:29:25;64.77;;;4.60;;
1308;SDS011;647;48.840;9.314;2022-12-24T04:31:52;63.30;;;4.73;;
1308;SDS011;647;48.840;9.314;2022-12-24T04:34:19;62.47;;;4.00;;
1308;SDS011;647;48.840;9.314;2022-12-24T04:36:46;66.03;;;4.40;;
1308;SDS011;647;48.840;9.314;2022-12-24T04:39:13;67.90;;;5.43;;
1308;SDS011;647;48.840;9.314;2022-12-24T04:41:42;63.03;;;4.73;;
1308;SDS011;647;48.840;9.314;2022-12-24T04:44:09;60.93;;;4.40;;
1308;SDS011;647;48.840;9.314;2022-12-24T04:46:36;64.77;;;5.50;;
1308;SDS011;647;48.840;9.314;2022-12-24T04:49:04;63.47;;;4.90;;
1308;SDS011;647;48.840;9.314;2022-12-24T04:51:31;67.33;;;4.73;;
1308;SDS011;647;48.840;9.314;2022-12-24T04:53:58;66.37;;;7.93;;
1308;SDS011;647;48.840;9.314;2022-12-24T04:56:26;63.80;;;5.37;;
1308;SDS011;647;48.840;9.314;2022-12-24T04:58:55;68.60;;;5.50;;
1308;SDS011;647;48.840;9.314;2022-12-24T05:01:23;62.60;;;5.83;;
1308;SDS011;647;48.840;9.314;2022-12-24T05:03:50;66.70;;;5.93;;
1308;SDS011;647;48.840;9.314;2022-12-24T05:06:18;63.23;;;5.47;;
1308;SDS011;647;48.840;9.314;2022-12-24T05:08:45;66.77;;;5.00;;
1308;SDS011;647;48.840;9.314;2022-12-24T05:11:13;62.60;;;4.73;;
1308;SDS011;647;48.840;9.314;2022-12-24T05:13:40;64.20;;;4.90;;
1308;SDS011;647;48.840;9.314;2022-12-24T05:16:09;66.87;;;4.90;;
1308;SDS011;647;48.840;9.314;2022-12-24T05:18:36;60.77;;;4.13;;
1308;SDS011;647;48.840;9.314;2022-12-24T05:21:06;63.33;;;5.10;;
1308;SDS011;647;48.840;9.314;2022-12-24T05:23:33;65.60;;;4.43;;
1308;SDS011;647;48.840;9.314;2022-12-24T05:26:20;66.90;;;5.53;;
1308;SDS011;647;48.840;9.314;2022-12-24T05:28:49;67.57;;;6.00;;
1308;SDS011;647;48.840;9.314;2022-12-24T05:31:18;66.37;;;5.40;;
1308;SDS011;647;48.840;9.314;2022-12-24T05:33:45;62.17;;;4.90;;
1308;SDS011;647;48.840;9.314;2022-12-24T05:36:13;64.70;;;5.27;;
1308;SDS011;647;48.840;9.314;2022-12-24T05:38:40;70.40;;;4.80;;
1308;SDS011;647;48.840;9.314;2022-12-24T05:41:07;63.13;;;5.60;;
1308;SDS011;647;48.840;9.314;2022-12-24T05:43:35;61.50;;;4.80;;
1308;SDS011;647;48.840;9.314;2022-12-24T05:46:02;70.60;;;5.93;;
1308;SDS011;647;48.840;9.314;2022-12-24T05:48:31;60.10;;;4.40;;
1308;SDS011;647;48.840;9.314;2022-12-24T05:50:59;61.70;;;4.93;;
1308;SDS011;647;48.840;9.314;2022-12-24T05:53:29;66.30;;;5.37;;
1308;SDS011;647;48.840;9.314;2022-12-24T05:56:01;72.10;;;5.67;;
1308;SDS011;647;48.840;9.314;2022-12-24T05:58:28;64.17;;;5.13;;
1308;SDS011;647;48.840;9.314;2022-12-24T06:00:55;62.53;;;5.03;;
1308;SDS011;647;48.840;9.314;2022-12-24T06:03:22;65.87;;;4.90;;
1308;SDS011;647;48.840;9.314;2022-12-24T06:05:57;63.50;;;4.63;;
1308;SDS011;647;48.840;9.314;2022-12-24T06:08:24;62.57;;;5.67;;
1308;SDS011;647;48.840;9.314;2022-12-24T06:10:53;66.50;;;4.47;;
1308;SDS011;647;48.840;9.314;2022-12-24T06:13:20;63.47;;;4.27;;
1308;SDS011;647;48.840;9.314;2022-12-24T06:15:47;68.67;;;5.37;;
1308;SDS011;647;48.840;9.314;2022-12-24T06:18:14;63.57;;;4.40;;
1308;SDS011;647;48.840;9.314;2022-12-24T06:20:41;67.90;;;5.10;;
1308;SDS011;647;48.840;9.314;2022-12-24T06:23:09;64.07;;;4.43;;
1308;SDS011;647;48.840;9.314;2022-12-24T06:25:37;75.20;;;5.20;;
1308;SDS011;647;48.840;9.314;2022-12-24T06:28:04;68.40;;;4.77;;
1308;SDS011;647;48.840;9.314;2022-12-24T06:30:31;69.33;;;5.33;;
1308;SDS011;647;48.840;9.314;2022-12-24T06:32:59;67.17;;;4.70;;
1308;SDS011;647;48.840;9.314;2022-12-24T06:35:26;65.43;;;4.43;;
1308;SDS011;647;48.840;9.314;2022-12-24T06:37:53;64.77;;;5.47;;
1308;SDS011;647;48.840;9.314;2022-12-24T06:40:22;65.03;;;5.20;;
1308;SDS011;647;48.840;9.314;2022-12-24T06:42:49;67.30;;;5.30;;
1308;SDS011;647;48.840;9.314;2022-12-24T06:45:16;66.90;;;4.50;;
1308;SDS011;647;48.840;9.314;2022-12-24T06:47:43;62.57;;;4.70;;
1308;SDS011;647;48.840;9.314;2022-12-24T06:50:10;74.90;;;4.97;;
1308;SDS011;647;48.840;9.314;2022-12-24T06:52:37;64.83;;;4.50;;
1308;SDS011;647;48.840;9.314;2022-12-24T06:55:05;65.20;;;5.07;;
1308;SDS011;647;48.840;9.314;2022-12-24T06:57:33;63.30;;;3.90;;
1308;SDS011;647;48.840;9.314;2022-12-24T07:00:00;63.40;;;5.20;;
1308;SDS011;647;48.840;9.314;2022-12-24T07:02:28;63.30;;;4.30;;
1308;SDS011;647;48.840;9.314;2022-12-24T07:04:55;61.90;;;4.13;;
1308;SDS011;647;48.840;9.314;2022-12-24T07:07:22;64.00;;;3.80;;
1308;SDS011;647;48.840;9.314;2022-12-24T07:09:49;62.43;;;3.90;;
1308;SDS011;647;48.840;9.314;2022-12-24T07:12:16;62.77;;;4.30;;
1308;SDS011;647;48.840;9.314;2022-12-24T07:14:44;67.43;;;5.43;;
1308;SDS011;647;48.840;9.314;2022-12-24T07:17:11;64.70;;;4.63;;
1308;SDS011;647;48.840;9.314;2022-12-24T07:19:39;69.00;;;4.87;;
1308;SDS011;647;48.840;9.314;2022-12-24T07:22:06;61.90;;;4.73;;
1308;SDS011;647;48.840;9.314;2022-12-24T07:24:33;60.70;;;4.23;;
1308;SDS011;647;48.840;9.314;2022-12-24T07:27:00;71.60;;;4.20;;
1308;SDS011;647;48.840;9.314;2022-12-24T07:29:27;62.90;;;4.73;;
1308;SDS011;647;48.840;9.314;2022-12-24T07:31:55;61.67;;;4.10;;
1308;SDS011;647;48.840;9.314;2022-12-24T07:34:22;60.07;;;3.70;;
1308;SDS011;647;48.840;9.314;2022-12-24T07:36:50;64.00;;;3.63;;
1308;SDS011;647;48.840;9.314;2022-12-24T07:39:17;64.53;;;4.83;;
1308;SDS011;647;48.840;9.314;2022-12-24T07:41:44;62.20;;;4.90;;
1308;SDS011;647;48.840;9.314;2022-12-24T07:44:11;63.13;;;3.90;;
1308;SDS011;647;48.840;9.314;2022-12-24T07:46:38;65.33;;;4.50;;
1308;SDS011;647;48.840;9.314;2022-12-24T07:49:07;65.30;;;4.23;;
1308;SDS011;647;48.840;9.314;2022-12-24T07:51:34;62.87;;;4.60;;
1308;SDS011;647;48.840;9.314;2022-12-24T07:54:01;67.10;;;4.50;;
1308;SDS011;647;48.840;9.314;2022-12-24T07:56:29;62.57;;;5.33;;
1308;SDS011;647;48.840;9.314;2022-12-24T07:58:56;62.40;;;4.67;;
1308;SDS011;647;48.840;9.314;2022-12-24T08:01:23;65.90;;;4.77;;
1308;SDS011;647;48.840;9.314;2022-12-24T08:03:50;60.53;;;3.97;;
1308;SDS011;647;48.840;9.314;2022-12-24T08:06:19;65.70;;;4.80;;
1308;SDS011;647;48.840;9.314;2022-12-24T08:08:47;62.87;;;4.30;;
1308;SDS011;647;48.840;9.314;2022-12-24T08:11:14;67.80;;;3.90;;
1308;SDS011;647;48.840;9.314;2022-12-24T08:13:41;64.23;;;4.77;;
1308;SDS011;647;48.840;9.314;2022-12-24T08:16:08;62.63;;;4.70;;
1308;SDS011;647;48.840;9.314;2022-12-24T08:18:35;67.40;;;4.40;;
1308;SDS011;647;48.840;9.314;2022-12-24T08:21:05;61.77;;;3.77;;
1308;SDS011;647;48.840;9.314;2022-12-24T08:23:33;62.47;;;4.30;;
1308;SDS011;647;48.840;9.314;2022-12-24T08:26:01;63.77;;;5.33;;
1308;SDS011;647;48.840;9.314;2022-12-24T08:28:28;65.90;;;4.93;;
1308;SDS011;647;48.840;9.314;2022-12-24T08:30:55;62.80;;;4.80;;
1308;SDS011;647;48.840;9.314;2022-12-24T08:33:22;64.60;;;4.87;;
1308;SDS011;647;48.840;9.314;2022-12-24T08:35:50;64.77;;;5.63;;
1308;SDS011;647;48.840;9.314;2022-12-24T08:38:18;60.20;;;4.17;;
1308;SDS011;647;48.840;9.314;2022-12-24T08:40:47;67.13;;;4.40;;
1308;SDS011;647;48.840;9.314;2022-12-24T08:43:14;66.23;;;5.53;;
1308;SDS011;647;48.840;9.314;2022-12-24T08:45:41;71.77;;;5.57;;
1308;SDS011;647;48.840;9.314;2022-12-24T08:48:09;66.17;;;5.40;;
1308;SDS011;647;48.840;9.314;2022-12-24T08:50:37;70.20;;;5.23;;
1308;SDS011;647;48.840;9.314;2022-12-24T08:53:04;63.90;;;4.47;;
1308;SDS011;647;48.840;9.314;2022-12-24T08:55:32;62.60;;;4.87;;
1308;SDS011;647;48.840;9.314;2022-12-24T08:58:00;68.13;;;4.93;;
1308;SDS011;647;48.840;9.314;2022-12-24T09:00:27;64.70;;;4.80;;
1308;SDS011;647;48.840;9.314;2022-12-24T09:02:55;65.17;;;4.60;;
1308;SDS011;647;48.840;9.314;2022-12-24T09:05:22;66.50;;;4.47;;
1308;SDS011;647;48.840;9.314;2022-12-24T09:07:49;69.83;;;5.10;;
1308;SDS011;647;48.840;9.314;2022-12-24T09:10:17;64.43;;;5.20;;
1308;SDS011;647;48.840;9.314;2022-12-24T09:12:44;69.37;;;4.60;;
1308;SDS011;647;48.840;9.314;2022-12-24T09:15:13;62.97;;;4.20;;
1308;SDS011;647;48.840;9.314;2022-12-24T09:17:40;64.27;;;4.90;;
1308;SDS011;647;48.840;9.314;2022-12-24T09:20:08;71.73;;;4.80;;
1308;SDS011;647;48.840;9.314;2022-12-24T09:22:36;64.80;;;4.50;;
1308;SDS011;647;48.840;9.314;2022-12-24T09:25:03;65.60;;;4.40;;
1308;SDS011;647;48.840;9.314;2022-12-24T09:27:31;67.03;;;4.20;;
1308;SDS011;647;48.840;9.314;2022-12-24T09:29:58;62.33;;;4.90;;
1308;SDS011;647;48.840;9.314;2022-12-24T09:32:26;66.93;;;4.20;;
1308;SDS011;647;48.840;9.314;2022-12-24T09:34:54;68.40;;;4.70;;
1308;SDS011;647;48.840;9.314;2022-12-24T09:37:21;69.90;;;3.90;;
1308;SDS011;647;48.840;9.314;2022-12-24T09:39:48;62.60;;;3.97;;
1308;SDS011;647;48.840;9.314;2022-12-24T09:42:18;70.13;;;4.97;;
1308;SDS011;647;48.840;9.314;2022-12-24T09:44:50;86.03;;;5.80;;
1308;SDS011;647;48.840;9.314;2022-12-24T09:47:21;66.50;;;5.07;;
1308;SDS011;647;48.840;9.314;2022-12-24T09:49:51;67.77;;;4.97;;
1308;SDS011;647;48.840;9.314;2022-12-24T09:52:21;65.93;;;4.63;;
1308;SDS011;647;48.840;9.314;2022-12-24T09:54:54;63.13;;;4.47;;
1308;SDS011;647;48.840;9.314;2022-12-24T09:57:24;68.60;;;4.37;;
1308;SDS011;647;48.840;9.314;2022-12-24T09:59:54;64.30;;;4.50;;
1308;SDS011;647;48.840;9.314;2022-12-24T10:02:21;66.80;;;5.37;;
1308;SDS011;647;48.840;9.314;2022-12-24T10:04:48;69.37;;;4.40;;
1308;SDS011;647;48.840;9.314;2022-12-24T10:07:21;68.70;;;5.77;;
1308;SDS011;647;48.840;9.314;2022-12-24T10:09:55;62.57;;;4.80;;
1308;SDS011;647;48.840;9.314;2022-12-24T10:12:28;64.63;;;5.60;;
1308;SDS011;647;48.840;9.314;2022-12-24T10:14:59;64.10;;;4.73;;
1308;SDS011;647;48.840;9.314;2022-12-24T10:17:34;66.90;;;5.53;;
1308;SDS011;647;48.840;9.314;2022-12-24T10:20:07;61.97;;;4.70;;
1308;SDS011;647;48.840;9.314;2022-12-24T10:22:43;61.00;;;4.60;;
1308;SDS011;647;48.840;9.314;2022-12-24T10:25:13;65.83;;;4.60;;
1308;SDS011;647;48.840;9.314;2022-12-24T10:27:43;65.23;;;4.57;;
1308;SDS011;647;48.840;9.314;2022-12-24T10:30:12;63.30;;;4.63;;
1308;SDS011;647;48.840;9.314;2022-12-24T10:32:40;63.80;;;4.90;;
1308;SDS011;647;48.840;9.314;2022-12-24T10:35:15;65.40;;;4.87;;
1308;SDS011;647;48.840;9.314;2022-12-24T10:37:47;64.43;;;5.30;;
1308;SDS011;647;48.840;9.314;2022-12-24T10:40:15;67.80;;;5.27;;
1308;SDS011;647;48.840;9.314;2022-12-24T10:42:44;65.20;;;4.50;;
1308;SDS011;647;48.840;9.314;2022-12-24T10:45:13;63.83;;;4.37;;
1308;SDS011;647;48.840;9.314;2022-12-24T10:47:40;62.10;;;4.30;;
1308;SDS011;647;48.840;9.314;2022-12-24T10:50:09;67.47;;;5.00;;
1308;SDS011;647;48.840;9.314;2022-12-24T10:52:39;65.47;;;4.73;;
1308;SDS011;647;48.840;9.314;2022-12-24T10:55:10;63.80;;;4.20;;
1308;SDS011;647;48.840;9.314;2022-12-24T10:57:38;69.70;;;4.57;;
1308;SDS011;647;48.840;9.314;2022-12-24T11:00:07;65.70;;;5.43;;
1308;SDS011;647;48.840;9.314;2022-12-24T11:02:43;63.50;;;4.10;;
1308;SDS011;647;48.840;9.314;2022-12-24T11:05:26;65.60;;;4.90;;
1308;SDS011;647;48.840;9.314;2022-12-24T11:07:58;64.70;;;4.43;;
1308;SDS011;647;48.840;9.314;2022-12-24T11:10:26;63.90;;;4.83;;
1308;SDS011;647;48.840;9.314;2022-12-24T11:12:53;68.40;;;4.63;;
1308;SDS011;647;48.840;9.314;2022-12-24T11:15:21;67.50;;;5.20;;
1308;SDS011;647;48.840;9.314;2022-12-24T11:17:51;66.80;;;4.80;;
1308;SDS011;647;48.840;9.314;2022-12-24T11:20:20;65.20;;;4.63;;
1308;SDS011;647;48.840;9.314;2022-12-24T11:22:50;64.40;;;5.20;;
1308;SDS011;647;48.840;9.314;2022-12-24T11:25:17;61.77;;;4.30;;
1308;SDS011;647;48.840;9.314;2022-12-24T11:27:47;63.27;;;4.10;;
1308;SDS011;647;48.840;9.314;2022-12-24T11:30:20;63.40;;;4.40;;
1308;SDS011;647;48.840;9.314;2022-12-24T11:32:48;67.33;;;4.57;;
1308;SDS011;647;48.840;9.314;2022-12-24T11:35:16;63.37;;;4.40;;
1308;SDS011;647;48.840;9.314;2022-12-24T11:37:45;64.50;;;4.80;;
1308;SDS011;647;48.840;9.314;2022-12-24T11:40:19;64.70;;;4.50;;
1308;SDS011;647;48.840;9.314;2022-12-24T11:42:48;63.50;;;4.60;;
1308;SDS011;647;48.840;9.314;2022-12-24T11:45:20;60.77;;;5.00;;
1308;SDS011;647;48.840;9.314;2022-12-24T11:47:48;65.67;;;4.33;;
1308;SDS011;647;48.840;9.314;2022-12-24T11:50:20;67.73;;;5.20;;
1308;SDS011;647;48.840;9.314;2022-12-24T11:52:47;65.80;;;5.87;;
1308;SDS011;647;48.840;9.314;2022-12-24T11:55:16;64.30;;;4.70;;
1308;SDS011;647;48.840;9.314;2022-12-24T11:57:47;68.80;;;4.97;;
1308;SDS011;647;48.840;9.314;2022-12-24T12:00:17;65.30;;;4.90;;
1308;SDS011;647;48.840;9.314;2022-12-24T12:02:45;68.47;;;5.73;;
1308;SDS011;647;48.840;9.314;2022-12-24T12:05:15;69.47;;;5.93;;
1308;SDS011;647;48.840;9.314;2022-12-24T12:07:43;69.20;;;5.97;;
1308;SDS011;647;48.840;9.314;2022-12-24T12:10:14;67.10;;;4.97;;
1308;SDS011;647;48.840;9.314;2022-12-24T12:12:43;68.40;;;5.20;;
1308;SDS011;647;48.840;9.314;2022-12-24T12:15:12;64.90;;;5.20;;
1308;SDS011;647;48.840;9.314;2022-12-24T12:17:42;66.00;;;5.70;;
1308;SDS011;647;48.840;9.314;2022-12-24T12:20:11;63.07;;;4.90;;
1308;SDS011;647;48.840;9.314;2022-12-24T12:22:41;67.57;;;5.50;;
1308;SDS011;647;48.840;9.314;2022-12-24T12:25:16;64.27;;;5.73;;
1308;SDS011;647;48.840;9.314;2022-12-24T12:27:46;65.20;;;5.57;;
1308;SDS011;647;48.840;9.314;2022-12-24T12:30:14;65.77;;;5.40;;
1308;SDS011;647;48.840;9.314;2022-12-24T12:32:44;61.50;;;5.10;;
1308;SDS011;647;48.840;9.314;2022-12-24T12:35:14;69.90;;;5.47;;
1308;SDS011;647;48.840;9.314;2022-12-24T12:37:43;68.67;;;6.87;;
1308;SDS011;647;48.840;9.314;2022-12-24T12:40:12;68.13;;;5.93;;
1308;SDS011;647;48.840;9.314;2022-12-24T12:42:40;66.73;;;5.80;;
1308;SDS011;647;48.840;9.314;2022-12-24T12:45:14;67.50;;;6.30;;
1308;SDS011;647;48.840;9.314;2022-12-24T12:47:48;67.97;;;5.47;;
1308;SDS011;647;48.840;9.314;2022-12-24T12:50:21;63.53;;;5.40;;
1308;SDS011;647;48.840;9.314;2022-12-24T12:52:53;65.77;;;5.70;;
1308;SDS011;647;48.840;9.314;2022-12-24T12:55:27;81.60;;;6.50;;
1308;SDS011;647;48.840;9.314;2022-12-24T12:57:58;66.13;;;6.40;;
1308;SDS011;647;48.840;9.314;2022-12-24T13:00:27;67.10;;;5.70;;
1308;SDS011;647;48.840;9.314;2022-12-24T13:03:05;66.37;;;5.80;;
1308;SDS011;647;48.840;9.314;2022-12-24T13:05:44;67.00;;;6.10;;
1308;SDS011;647;48.840;9.314;2022-12-24T13:08:29;69.70;;;6.13;;
1308;SDS011;647;48.840;9.314;2022-12-24T13:11:03;74.20;;;6.50;;
1308;SDS011;647;48.840;9.314;2022-12-24T13:13:50;66.27;;;6.20;;
1308;SDS011;647;48.840;9.314;2022-12-24T13:16:28;71.43;;;6.40;;
1308;SDS011;647;48.840;9.314;2022-12-24T13:19:01;70.40;;;6.13;;
1308;SDS011;647;48.840;9.314;2022-12-24T13:21:31;74.30;;;6.07;;
1308;SDS011;647;48.840;9.314;2022-12-24T13:24:05;66.83;;;6.00;;
1308;SDS011;647;48.840;9.314;2022-12-24T13:26:34;69.47;;;6.93;;
1308;SDS011;647;48.840;9.314;2022-12-24T13:31:43;65.37;;;5.27;;
1308;SDS011;647;48.840;9.314;2022-12-24T13:34:31;68.70;;;6.73;;
1308;SDS011;647;48.840;9.314;2022-12-24T13:36:59;68.67;;;6.53;;
1308;SDS011;647;48.840;9.314;2022-12-24T13:39:27;65.33;;;6.00;;
1308;SDS011;647;48.840;9.314;2022-12-24T13:41:54;70.60;;;6.53;;
1308;SDS011;647;48.840;9.314;2022-12-24T13:44:22;67.93;;;7.27;;
1308;SDS011;647;48.840;9.314;2022-12-24T13:46:54;69.10;;;5.80;;
1308;SDS011;647;48.840;9.314;2022-12-24T13:49:29;67.80;;;5.23;;
1308;SDS011;647;48.840;9.314;2022-12-24T13:52:04;72.17;;;5.63;;
1308;SDS011;647;48.840;9.314;2022-12-24T13:54:32;64.60;;;5.60;;
1308;SDS011;647;48.840;9.314;2022-12-24T13:56:59;73.40;;;8.50;;
1308;SDS011;647;48.840;9.314;2022-12-24T13:59:29;73.63;;;11.63;;
1308;SDS011;647;48.840;9.314;2022-12-24T14:02:00;69.53;;;9.03;;
1308;SDS011;647;48.840;9.314;2022-12-24T14:04:30;66.97;;;7.47;;
1308;SDS011;647;48.840;9.314;2022-12-24T14:06:59;71.67;;;7.10;;
1308;SDS011;647;48.840;9.314;2022-12-24T14:09:27;74.17;;;6.67;;
1308;SDS011;647;48.840;9.314;2022-12-24T14:12:14;71.33;;;8.07;;
1308;SDS011;647;48.840;9.314;2022-12-24T14:14:55;72.43;;;7.87;;
1308;SDS011;647;48.840;9.314;2022-12-24T14:17:22;67.23;;;6.40;;
1308;SDS011;647;48.840;9.314;2022-12-24T14:19:52;68.70;;;5.30;;
1308;SDS011;647;48.840;9.314;2022-12-24T14:22:24;67.40;;;6.20;;
1308;SDS011;647;48.840;9.314;2022-12-24T14:24:53;64.20;;;5.83;;
1308;SDS011;647;48.840;9.314;2022-12-24T14:27:23;70.47;;;6.53;;
1308;SDS011;647;48.840;9.314;2022-12-24T14:29:51;65.17;;;6.30;;
1308;SDS011;647;48.840;9.314;2022-12-24T14:32:20;75.07;;;7.60;;
1308;SDS011;647;48.840;9.314;2022-12-24T14:37:31;73.10;;;6.70;;
1308;SDS011;647;48.840;9.314;2022-12-24T14:39:58;68.63;;;6.90;;
1308;SDS011;647;48.840;9.314;2022-12-24T14:42:28;73.13;;;7.23;;
1308;SDS011;647;48.840;9.314;2022-12-24T14:45:00;63.03;;;5.83;;
1308;SDS011;647;48.840;9.314;2022-12-24T14:47:29;69.93;;;6.30;;
1308;SDS011;647;48.840;9.314;2022-12-24T14:50:19;73.80;;;6.20;;
1308;SDS011;647;48.840;9.314;2022-12-24T14:52:54;74.47;;;6.53;;
1308;SDS011;647;48.840;9.314;2022-12-24T14:55:33;74.10;;;6.50;;
1308;SDS011;647;48.840;9.314;2022-12-24T14:58:17;72.40;;;6.20;;
1308;SDS011;647;48.840;9.314;2022-12-24T15:00:45;66.43;;;6.13;;
1308;SDS011;647;48.840;9.314;2022-12-24T15:03:13;67.80;;;6.00;;
1308;SDS011;647;48.840;9.314;2022-12-24T15:05:40;69.13;;;7.33;;
1308;SDS011;647;48.840;9.314;2022-12-24T15:08:12;67.23;;;6.07;;
1308;SDS011;647;48.840;9.314;2022-12-24T15:10:42;67.40;;;6.37;;
1308;SDS011;647;48.840;9.314;2022-12-24T15:13:12;63.37;;;5.70;;
1308;SDS011;647;48.840;9.314;2022-12-24T15:15:41;65.80;;;5.90;;
1308;SDS011;647;48.840;9.314;2022-12-24T15:18:10;73.73;;;6.23;;
1308;SDS011;647;48.840;9.314;2022-12-24T15:20:41;66.47;;;5.77;;
1308;SDS011;647;48.840;9.314;2022-12-24T15:23:15;65.17;;;6.57;;
1308;SDS011;647;48.840;9.314;2022-12-24T15:25:43;65.40;;;6.30;;
1308;SDS011;647;48.840;9.314;2022-12-24T15:28:14;67.40;;;6.53;;
1308;SDS011;647;48.840;9.314;2022-12-24T15:30:42;66.93;;;7.37;;
1308;SDS011;647;48.840;9.314;2022-12-24T15:33:09;69.47;;;6.37;;
1308;SDS011;647;48.840;9.314;2022-12-24T15:35:45;67.10;;;6.80;;
1308;SDS011;647;48.840;9.314;2022-12-24T15:38:20;63.87;;;6.90;;